Time;durP1;ratioP1;P1;durP2;ratioP2;P2;SDS_P1;SDS_P2;PMS_P1;PMS_P2;Temp;Humidity;BMP_temperature;BMP_pressure;BME280_temperature;BME280_humidity;BME280_pressure;Samples;Min_cycle;Max_cycle;Signal;HPM_P1;HPM_P2
2022/08/20 00:00:13;;;;;;;30.80;11.75;;;21.00;99.90;;;;;;5054520;28;20376;-71
2022/08/20 00:02:42;;;;;;;28.08;10.60;;;20.90;99.90;;;;;;5053737;28;20036;-72
2022/08/20 00:05:10;;;;;;;33.95;11.60;;;20.90;99.90;;;;;;5054990;28;20122;-72
2022/08/20 00:07:39;;;;;;;25.67;11.65;;;20.90;99.90;;;;;;5055519;28;20044;-71
2022/08/20 00:10:09;;;;;;;29.65;12.35;;;20.90;99.90;;;;;;5038152;28;20135;-71
2022/08/20 00:12:37;;;;;;;25.13;12.35;;;20.90;99.90;;;;;;5054610;28;20069;-70
2022/08/20 00:15:06;;;;;;;27.88;11.88;;;20.90;99.90;;;;;;5054763;28;20083;-71
2022/08/20 00:17:36;;;;;;;24.75;12.73;;;20.90;99.90;;;;;;5054709;28;20099;-70
2022/08/20 00:20:04;;;;;;;23.52;12.98;;;21.00;99.90;;;;;;5067329;28;20044;-72
2022/08/20 00:22:32;;;;;;;32.28;11.57;;;21.00;99.90;;;;;;5074021;28;20040;-72
2022/08/20 00:25:01;;;;;;;28.38;11.88;;;21.00;99.90;;;;;;5064230;28;20040;-72
2022/08/20 00:27:28;;;;;;;28.33;12.55;;;21.00;99.90;;;;;;5053518;28;20037;-72
2022/08/20 00:29:55;;;;;;;23.45;11.30;;;21.00;99.90;;;;;;5036201;28;20412;-71
2022/08/20 00:32:23;;;;;;;29.50;11.57;;;21.00;99.90;;;;;;5054256;28;20098;-72
2022/08/20 00:34:50;;;;;;;28.83;12.30;;;21.00;99.90;;;;;;5053872;28;20128;-71
2022/08/20 00:37:17;;;;;;;25.73;11.95;;;21.00;99.90;;;;;;5053907;28;20037;-72
2022/08/20 00:39:45;;;;;;;23.50;12.85;;;20.90;99.90;;;;;;5053652;28;20220;-71
2022/08/20 00:42:13;;;;;;;21.98;13.07;;;21.00;99.90;;;;;;5053508;28;20048;-72
2022/08/20 00:44:45;;;;;;;29.00;12.35;;;21.00;99.90;;;;;;5053521;28;20051;-72
2022/08/20 00:47:13;;;;;;;25.00;12.27;;;21.00;99.90;;;;;;5053897;28;20041;-72
2022/08/20 00:49:40;;;;;;;25.67;12.38;;;20.90;99.90;;;;;;5053814;28;20059;-73
2022/08/20 00:52:11;;;;;;;28.55;13.30;;;20.90;99.90;;;;;;5053782;28;20052;-71
2022/08/20 00:54:42;;;;;;;31.00;12.57;;;20.90;99.90;;;;;;5053731;28;20049;-71
2022/08/20 00:57:22;;;;;;;27.33;12.38;;;20.80;99.90;;;;;;5055139;28;20052;-70
2022/08/20 00:59:51;;;;;;;26.38;11.90;;;20.80;99.90;;;;;;5053728;28;20052;-70
2022/08/20 01:02:21;;;;;;;23.20;12.05;;;20.70;99.90;;;;;;5035786;28;20091;-70
2022/08/20 01:04:50;;;;;;;25.30;12.57;;;20.70;99.90;;;;;;5052182;28;20037;-70
2022/08/20 01:07:19;;;;;;;25.33;12.70;;;20.70;99.90;;;;;;5053377;28;20049;-71
2022/08/20 01:09:47;;;;;;;28.40;13.43;;;20.80;99.90;;;;;;5053563;28;20446;-71
2022/08/20 01:12:17;;;;;;;28.42;13.10;;;20.70;99.90;;;;;;5053389;28;20044;-72
2022/08/20 01:14:46;;;;;;;28.35;13.80;;;20.70;99.90;;;;;;5053158;28;20091;-71
2022/08/20 01:17:17;;;;;;;28.30;13.43;;;20.70;99.90;;;;;;5053367;28;20049;-71
2022/08/20 01:19:49;;;;;;;22.63;13.50;;;20.70;99.90;;;;;;5059257;28;20045;-71
2022/08/20 01:25:30;;;;;;;42.80;11.85;;;20.70;99.90;;;;;;5054050;28;20041;-71
2022/08/20 01:27:59;;;;;;;0.77;0.77;;;20.50;99.90;;;;;;5053522;28;20404;-72
2022/08/20 01:30:28;;;;;;;1.77;1.25;;;20.30;99.90;;;;;;5035975;28;20114;-73
2022/08/20 01:32:56;;;;;;;9.13;1.17;;;20.30;99.90;;;;;;5055168;28;20090;-73
2022/08/20 01:35:25;;;;;;;0.82;0.77;;;20.20;99.90;;;;;;5057399;28;20076;-72
2022/08/20 01:37:52;;;;;;;0.70;0.70;;;20.20;99.90;;;;;;5070340;28;20045;-71
2022/08/20 01:40:35;;;;;;;2.83;1.33;;;20.20;99.90;;;;;;5070439;28;20049;-72
2022/08/20 01:43:05;;;;;;;0.05;0.05;;;20.30;99.90;;;;;;5052695;28;20067;-73
2022/08/20 01:45:32;;;;;;;0.77;0.38;;;20.30;99.90;;;;;;5053036;28;20041;-72
2022/08/20 01:48:00;;;;;;;4.95;2.65;;;20.30;99.90;;;;;;5053365;28;20463;-72
2022/08/20 01:50:30;;;;;;;0.60;0.60;;;20.30;99.90;;;;;;5053327;28;20045;-72
2022/08/20 01:53:03;;;;;;;12.60;1.73;;;20.30;99.90;;;;;;5052833;28;20049;-73
2022/08/20 01:55:31;;;;;;;0.20;0.20;;;20.30;99.90;;;;;;5053121;28;20045;-72
2022/08/20 01:57:59;;;;;;;1.10;1.00;;;20.30;99.90;;;;;;5052216;28;20053;-72
2022/08/20 02:00:28;;;;;;;3.88;1.60;;;20.30;99.90;;;;;;5052444;28;20051;-73
2022/08/20 02:02:55;;;;;;;0.98;0.70;;;20.40;99.90;;;;;;5052837;28;20041;-73
2022/08/20 02:05:22;;;;;;;0.85;0.65;;;20.40;99.90;;;;;;5052931;28;20045;-72
2022/08/20 02:07:50;;;;;;;1.58;1.48;;;20.30;99.90;;;;;;5053304;28;20159;-72
2022/08/20 02:10:18;;;;;;;1.30;0.40;;;20.20;99.90;;;;;;5037673;28;20047;-72
2022/08/20 02:12:45;;;;;;;0.38;0.32;;;20.20;99.90;;;;;;5037112;28;20518;-71
2022/08/20 02:15:13;;;;;;;3.17;0.95;;;20.20;99.90;;;;;;5053790;28;20045;-71
2022/08/20 02:17:43;;;;;;;0.00;0.00;;;20.20;99.90;;;;;;5038409;28;20049;-71
2022/08/20 02:20:13;;;;;;;0.30;0.30;;;20.10;99.90;;;;;;5071287;28;20051;-71
2022/08/20 02:22:46;;;;;;;1.00;0.98;;;20.10;99.90;;;;;;5077163;28;20044;-70
2022/08/20 02:25:15;;;;;;;0.50;0.40;;;20.10;99.90;;;;;;5049992;28;20484;-71
2022/08/20 02:27:45;;;;;;;0.30;0.20;;;20.20;99.90;;;;;;5040744;28;20106;-71
2022/08/20 02:30:16;;;;;;;2.22;2.03;;;20.20;99.90;;;;;;5059421;28;20552;-71
2022/08/20 02:32:45;;;;;;;2.00;1.67;;;20.20;99.90;;;;;;5058446;28;20045;-71
2022/08/20 02:35:13;;;;;;;1.98;1.27;;;20.20;99.90;;;;;;5057869;28;20041;-72
2022/08/20 02:37:43;;;;;;;0.10;0.10;;;20.10;99.90;;;;;;5055975;28;20045;-71
2022/08/20 02:40:12;;;;;;;1.45;0.82;;;20.10;99.90;;;;;;5055798;28;20045;-71
2022/08/20 02:42:40;;;;;;;4.07;1.52;;;20.10;99.90;;;;;;5055971;28;20041;-72
2022/08/20 02:45:09;;;;;;;0.55;0.43;;;20.20;99.90;;;;;;5055601;28;20100;-71
2022/08/20 02:47:37;;;;;;;0.73;0.73;;;20.20;99.90;;;;;;5056523;28;20498;-71
2022/08/20 02:50:10;;;;;;;0.30;0.30;;;20.20;99.90;;;;;;5056572;28;20047;-72
2022/08/20 02:52:38;;;;;;;0.30;0.30;;;20.20;99.90;;;;;;5055510;28;20087;-71
2022/08/20 02:55:06;;;;;;;0.10;0.10;;;20.10;99.90;;;;;;5047714;28;20036;-71
2022/08/20 02:57:33;;;;;;;4.47;1.88;;;20.10;99.90;;;;;;5055489;28;20052;-73
2022/08/20 03:00:00;;;;;;;0.77;0.77;;;20.10;99.90;;;;;;5055319;28;20051;-73
2022/08/20 03:02:28;;;;;;;0.57;0.57;;;20.10;99.90;;;;;;5055803;28;20045;-72
2022/08/20 03:04:55;;;;;;;0.17;0.17;;;20.10;99.90;;;;;;5037732;28;20130;-72
2022/08/20 03:07:24;;;;;;;0.35;0.35;;;20.20;99.90;;;;;;5055849;28;20420;-72
2022/08/20 03:09:51;;;;;;;2.08;1.20;;;20.30;99.90;;;;;;5055780;28;20411;-72
2022/08/20 03:12:19;;;;;;;1.35;1.25;;;20.30;99.90;;;;;;5055504;28;20045;-73
2022/08/20 03:14:46;;;;;;;4.88;2.40;;;20.20;99.90;;;;;;5054655;28;20546;-72
2022/08/20 03:17:13;;;;;;;1.15;1.05;;;20.20;99.90;;;;;;5055522;28;20488;-72
2022/08/20 03:19:41;;;;;;;1.25;1.15;;;20.20;99.90;;;;;;5047128;28;20400;-72
2022/08/20 03:22:08;;;;;;;2.42;2.22;;;20.20;99.90;;;;;;5075440;28;20036;-72
2022/08/20 03:24:36;;;;;;;1.08;1.08;;;20.20;99.90;;;;;;5068099;28;20091;-72
2022/08/20 03:27:05;;;;;;;16.63;2.70;;;20.10;99.90;;;;;;5054641;28;20095;-72
2022/08/20 03:29:32;;;;;;;0.55;0.55;;;20.10;99.90;;;;;;5054736;28;20041;-72
2022/08/20 03:31:59;;;;;;;0.52;0.52;;;20.00;99.90;;;;;;5055317;28;20550;-71
2022/08/20 03:34:27;;;;;;;0.85;0.80;;;20.00;99.90;;;;;;5055027;28;20037;-72
2022/08/20 03:36:54;;;;;;;4.45;2.00;;;20.10;99.90;;;;;;5055452;28;20052;-72
2022/08/20 03:39:21;;;;;;;1.35;1.25;;;20.10;99.90;;;;;;5054636;28;20049;-72
2022/08/20 03:41:50;;;;;;;0.25;0.25;;;20.10;99.90;;;;;;5055238;28;20037;-73
2022/08/20 03:44:17;;;;;;;0.10;0.10;;;20.10;99.90;;;;;;5054262;28;20044;-72
2022/08/20 03:46:44;;;;;;;2.05;1.80;;;20.00;99.90;;;;;;5037112;28;20043;-71
2022/08/20 03:49:11;;;;;;;0.22;0.22;;;19.90;99.90;;;;;;5037081;28;20041;-72
2022/08/20 03:51:39;;;;;;;6.72;1.45;;;19.80;99.90;;;;;;5054503;28;20037;-73
2022/08/20 03:54:06;;;;;;;2.22;0.98;;;19.80;99.90;;;;;;5054410;28;20052;-72
2022/08/20 03:56:34;;;;;;;0.30;0.30;;;19.90;99.90;;;;;;5054912;28;20099;-72
2022/08/20 03:59:02;;;;;;;0.45;0.45;;;20.00;99.90;;;;;;5055317;28;20045;-75
2022/08/20 04:01:30;;;;;;;0.70;0.70;;;20.00;99.90;;;;;;5054903;28;20041;-75
2022/08/20 04:03:57;;;;;;;1.77;1.67;;;20.00;99.90;;;;;;5054635;28;20095;-74
2022/08/20 04:06:24;;;;;;;0.55;0.55;;;20.00;99.90;;;;;;5054127;28;20045;-74
2022/08/20 04:08:52;;;;;;;1.20;1.15;;;20.10;99.90;;;;;;5054748;28;20543;-74
2022/08/20 04:11:20;;;;;;;2.55;2.20;;;20.10;99.90;;;;;;5054698;28;20122;-74
2022/08/20 04:13:47;;;;;;;0.43;0.43;;;20.10;99.90;;;;;;5054350;28;20056;-73
2022/08/20 04:16:16;;;;;;;1.40;1.30;;;20.10;99.90;;;;;;5054625;28;20037;-74
2022/08/20 04:18:43;;;;;;;0.55;0.55;;;20.00;99.90;;;;;;5056489;28;20052;-73
2022/08/20 04:21:11;;;;;;;0.20;0.20;;;20.00;99.90;;;;;;5063716;28;20049;-74
2022/08/20 04:23:38;;;;;;;1.73;1.63;;;20.00;99.90;;;;;;5054333;28;20037;-73
2022/08/20 04:26:06;;;;;;;0.73;0.70;;;20.00;99.90;;;;;;5036356;28;20048;-74
2022/08/20 04:28:33;;;;;;;3.00;1.85;;;19.90;99.90;;;;;;5054537;28;20078;-74
2022/08/20 04:31:01;;;;;;;1.52;1.23;;;19.90;99.90;;;;;;5054374;28;20103;-73
2022/08/20 04:33:30;;;;;;;3.15;2.60;;;19.90;99.90;;;;;;5053687;28;20045;-73
2022/08/20 04:36:01;;;;;;;0.30;0.30;;;20.00;99.90;;;;;;5054189;28;20099;-73
2022/08/20 04:38:30;;;;;;;0.73;0.73;;;20.00;99.90;;;;;;5058387;28;20065;-80
2022/08/20 04:41:00;;;;;;;3.40;1.45;;;20.00;99.90;;;;;;5063161;28;20583;-80
2022/08/20 04:43:33;;;;;;;0.77;0.77;;;20.00;99.90;;;;;;5056009;28;20040;-77
2022/08/20 04:46:05;;;;;;;0.45;0.45;;;20.10;99.90;;;;;;5053562;28;20516;-76
2022/08/20 04:48:34;;;;;;;0.70;0.70;;;20.10;99.90;;;;;;5054353;28;20037;-76
2022/08/20 04:51:02;;;;;;;2.72;1.15;;;20.20;99.90;;;;;;5054593;28;20045;-80
2022/08/20 04:53:30;;;;;;;1.25;0.82;;;20.30;99.90;;;;;;5065875;28;20041;-78
2022/08/20 04:56:00;;;;;;;4.60;2.13;;;20.40;99.90;;;;;;5071459;28;20575;-78
2022/08/20 04:58:30;;;;;;;3.15;2.25;;;20.40;99.90;;;;;;5064599;28;20060;-77
2022/08/20 05:00:59;;;;;;;4.03;1.42;;;20.40;99.90;;;;;;5066307;28;20049;-77
2022/08/20 05:03:26;;;;;;;0.30;0.30;;;20.40;99.90;;;;;;5057600;28;20045;-76
2022/08/20 05:05:56;;;;;;;1.38;1.27;;;20.40;99.90;;;;;;5054062;28;20041;-77
2022/08/20 05:08:24;;;;;;;2.22;1.80;;;20.50;99.90;;;;;;5053798;28;20102;-76
2022/08/20 05:10:53;;;;;;;1.50;1.38;;;20.50;99.90;;;;;;5056635;28;20041;-75
2022/08/20 05:13:21;;;;;;;3.92;2.55;;;20.50;99.90;;;;;;5056266;28;20103;-77
2022/08/20 05:15:48;;;;;;;0.60;0.60;;;20.40;99.90;;;;;;5036760;28;20480;-76
2022/08/20 05:18:18;;;;;;;3.67;3.15;;;20.40;99.90;;;;;;5055266;28;20044;-77
2022/08/20 05:20:45;;;;;;;2.55;2.35;;;20.40;99.90;;;;;;5073368;28;20044;-77
2022/08/20 05:23:17;;;;;;;0.40;0.40;;;20.40;99.90;;;;;;5074873;28;20037;-78
2022/08/20 05:25:50;;;;;;;1.40;1.30;;;20.50;99.90;;;;;;5038681;28;20049;-77
2022/08/20 05:28:19;;;;;;;2.67;2.05;;;20.50;99.90;;;;;;5054295;28;20373;-77
2022/08/20 05:30:48;;;;;;;2.97;2.38;;;20.50;99.90;;;;;;5055691;28;20557;-78
2022/08/20 05:33:18;;;;;;;1.85;1.73;;;20.50;99.90;;;;;;5037992;28;20447;-79
2022/08/20 05:35:48;;;;;;;1.25;1.10;;;20.50;99.90;;;;;;5055614;28;20044;-78
2022/08/20 05:38:18;;;;;;;2.38;2.17;;;20.50;99.90;;;;;;5055922;28;20075;-79
2022/08/20 05:40:46;;;;;;;2.45;2.10;;;20.50;99.90;;;;;;5057052;28;20051;-79
2022/08/20 05:43:13;;;;;;;2.00;1.80;;;20.50;99.90;;;;;;5056556;28;20044;-79
2022/08/20 05:45:43;;;;;;;1.70;1.58;;;20.40;99.90;;;;;;5060391;28;20052;-79
2022/08/20 05:48:12;;;;;;;6.53;3.10;;;20.40;99.90;;;;;;5062131;28;20056;-79
2022/08/20 05:50:41;;;;;;;1.35;1.27;;;20.50;99.90;;;;;;5047047;28;20044;-79
2022/08/20 05:53:09;;;;;;;1.40;1.30;;;20.40;99.90;;;;;;5072005;28;20036;-80
2022/08/20 05:55:38;;;;;;;5.03;1.58;;;20.30;99.90;;;;;;5067070;28;20437;-76
2022/08/20 05:58:08;;;;;;;1.58;1.48;;;20.30;99.90;;;;;;5061160;28;20110;-79
2022/08/20 06:00:36;;;;;;;1.00;0.82;;;20.30;99.90;;;;;;5064924;28;20110;-77
2022/08/20 06:05:48;;;;;;;1.83;1.67;;;20.40;99.90;;;;;;5049430;28;20037;-77
2022/08/20 06:08:16;;;;;;;4.00;3.60;;;20.40;99.90;;;;;;5041182;28;20128;-78
2022/08/20 06:10:45;;;;;;;1.02;1.00;;;20.40;99.90;;;;;;5049961;28;20051;-78
2022/08/20 06:13:12;;;;;;;1.20;0.90;;;20.40;99.90;;;;;;5059951;28;20592;-77
2022/08/20 06:15:40;;;;;;;0.88;0.85;;;20.40;99.90;;;;;;5040055;28;20060;-77
2022/08/20 06:18:08;;;;;;;1.30;1.00;;;20.30;99.90;;;;;;5057553;28;20047;-77
2022/08/20 06:20:36;;;;;;;0.88;0.88;;;20.40;99.90;;;;;;5075128;28;20044;-79
2022/08/20 06:23:04;;;;;;;1.58;1.48;;;20.40;99.90;;;;;;5062097;28;20064;-77
2022/08/20 06:25:32;;;;;;;3.92;1.20;;;20.40;99.90;;;;;;5043067;28;20053;-80
2022/08/20 06:28:02;;;;;;;0.55;0.45;;;20.40;99.90;;;;;;5044236;28;20087;-80
2022/08/20 06:30:29;;;;;;;2.97;2.33;;;20.40;99.90;;;;;;5042627;28;20128;-80
2022/08/20 06:32:57;;;;;;;9.63;1.67;;;20.40;99.90;;;;;;5060831;28;20044;-80
2022/08/20 06:35:25;;;;;;;0.73;0.73;;;20.40;99.90;;;;;;5049016;28;20045;-77
2022/08/20 06:37:52;;;;;;;1.35;1.08;;;20.40;99.90;;;;;;5066168;28;20483;-77
2022/08/20 06:40:23;;;;;;;0.75;0.75;;;20.40;99.90;;;;;;5079740;28;20559;-77
2022/08/20 06:42:51;;;;;;;1.75;1.65;;;20.30;99.90;;;;;;5059543;28;20068;-77
2022/08/20 06:45:23;;;;;;;0.30;0.30;;;20.30;99.90;;;;;;5079235;28;20036;-77
2022/08/20 06:47:52;;;;;;;1.95;1.52;;;20.30;99.90;;;;;;5067804;28;20112;-79
2022/08/20 06:50:22;;;;;;;3.35;2.78;;;20.20;99.90;;;;;;5058200;28;20500;-76
2022/08/20 06:52:50;;;;;;;3.35;2.53;;;20.20;99.90;;;;;;5057533;28;20376;-76
2022/08/20 06:55:17;;;;;;;0.68;0.43;;;20.10;99.90;;;;;;5043915;28;20539;-77
2022/08/20 06:57:46;;;;;;;0.73;0.68;;;20.20;99.90;;;;;;5061102;28;20048;-78
2022/08/20 07:00:19;;;;;;;6.03;0.82;;;20.20;99.90;;;;;;5079664;28;20099;-77
2022/08/20 07:02:47;;;;;;;0.40;0.40;;;20.20;99.90;;;;;;5064888;28;20041;-77
2022/08/20 07:05:14;;;;;;;1.73;1.42;;;20.30;99.90;;;;;;5038678;28;20056;-76
2022/08/20 07:07:48;;;;;;;1.15;1.10;;;20.40;99.90;;;;;;5037634;28;20123;-77
2022/08/20 07:10:17;;;;;;;6.88;1.35;;;20.40;99.90;;;;;;5056109;28;20063;-77
2022/08/20 07:12:45;;;;;;;0.90;0.90;;;20.40;99.90;;;;;;5063217;28;20036;-77
2022/08/20 07:15:14;;;;;;;1.00;1.00;;;20.40;99.90;;;;;;5060666;28;20053;-78
2022/08/20 07:17:48;;;;;;;0.43;0.43;;;20.40;99.90;;;;;;5055161;28;20040;-78
2022/08/20 07:20:15;;;;;;;1.90;1.50;;;20.40;99.90;;;;;;5041642;28;20384;-80
2022/08/20 07:22:43;;;;;;;1.90;1.00;;;20.30;99.90;;;;;;5056919;28;20041;-79
2022/08/20 07:25:13;;;;;;;1.20;1.10;;;20.20;99.90;;;;;;5059283;28;20056;-77
2022/08/20 07:27:41;;;;;;;0.63;0.55;;;20.20;99.90;;;;;;5059516;28;20411;-79
2022/08/20 07:32:57;;;;;;;1.20;1.13;;;20.40;99.90;;;;;;5022718;28;20040;-79
2022/08/20 07:35:25;;;;;;;3.00;1.55;;;20.50;99.90;;;;;;5055404;28;20041;-79
2022/08/20 07:37:54;;;;;;;7.15;2.70;;;20.50;99.90;;;;;;5061759;28;20488;-77
2022/08/20 07:40:26;;;;;;;0.22;0.22;;;20.50;99.90;;;;;;5050943;28;20047;-77
2022/08/20 07:42:53;;;;;;;1.73;1.63;;;20.50;99.90;;;;;;5070707;28;20056;-78
2022/08/20 07:45:21;;;;;;;0.63;0.63;;;20.50;99.90;;;;;;5030934;28;20076;-82
2022/08/20 07:47:52;;;;;;;8.88;2.10;;;20.40;99.90;;;;;;5051776;28;20395;-81
2022/08/20 07:50:24;;;;;;;0.65;0.65;;;20.40;99.90;;;;;;5058208;28;20037;-77
2022/08/20 07:52:52;;;;;;;2.53;1.05;;;20.40;99.90;;;;;;5055278;28;20045;-78
2022/08/20 07:55:21;;;;;;;15.07;1.58;;;20.30;99.90;;;;;;5054949;28;20098;-77
2022/08/20 07:57:50;;;;;;;1.10;1.00;;;20.40;99.90;;;;;;5069858;28;20045;-80
2022/08/20 08:00:19;;;;;;;2.40;2.05;;;20.40;99.90;;;;;;5042491;28;20041;-83
2022/08/20 08:02:46;;;;;;;0.50;0.50;;;20.30;99.90;;;;;;5062613;28;20099;-84
2022/08/20 08:05:14;;;;;;;3.95;2.35;;;20.20;99.90;;;;;;5042168;28;20060;-80
2022/08/20 08:07:43;;;;;;;1.58;1.45;;;20.20;99.90;;;;;;5040888;28;20073;-79
2022/08/20 08:10:17;;;;;;;1.17;1.05;;;20.30;99.90;;;;;;5035251;28;20049;-81
2022/08/20 08:12:48;;;;;;;2.10;1.17;;;20.30;99.90;;;;;;5039859;28;20037;-80
2022/08/20 08:15:17;;;;;;;0.85;0.85;;;20.40;99.90;;;;;;5041276;28;20045;-84
2022/08/20 08:17:47;;;;;;;0.40;0.40;;;20.50;99.90;;;;;;5074086;28;20552;-80
2022/08/20 08:20:16;;;;;;;0.82;0.77;;;20.60;99.90;;;;;;5079690;28;20098;-80
2022/08/20 08:22:44;;;;;;;2.17;1.73;;;20.80;99.90;;;;;;5066377;28;20499;-80
2022/08/20 08:25:15;;;;;;;5.18;1.58;;;20.80;99.90;;;;;;5068737;28;20033;-82
2022/08/20 08:27:47;;;;;;;0.45;0.45;;;20.80;99.90;;;;;;5055459;28;20124;-80
2022/08/20 08:30:16;;;;;;;2.03;1.23;;;20.90;99.90;;;;;;5042462;28;20045;-79
2022/08/20 08:35:25;;;;;;;1.55;1.38;;;20.90;99.90;;;;;;5062342;28;20049;-78
2022/08/20 08:37:54;;;;;;;0.30;0.20;;;21.00;99.90;;;;;;5059871;28;20037;-78
2022/08/20 08:40:21;;;;;;;0.93;0.88;;;21.00;99.90;;;;;;5060597;28;20037;-78
2022/08/20 08:42:54;;;;;;;2.28;2.05;;;20.90;99.90;;;;;;5039437;28;20118;-80
2022/08/20 08:45:22;;;;;;;1.35;1.23;;;20.90;99.90;;;;;;5058588;28;20109;-80
2022/08/20 08:47:49;;;;;;;0.40;0.40;;;20.90;99.90;;;;;;5053311;28;20057;-79
2022/08/20 08:50:22;;;;;;;0.40;0.40;;;20.90;99.90;;;;;;5064068;28;20041;-79
2022/08/20 08:52:58;;;;;;;2.53;1.83;;;21.00;99.90;;;;;;5060575;28;20041;-81
2022/08/20 08:55:26;;;;;;;0.00;0.00;;;21.20;99.90;;;;;;5070775;28;20047;-80
2022/08/20 08:57:57;;;;;;;1.92;0.68;;;21.30;99.90;;;;;;5075611;28;20033;-78
2022/08/20 09:00:27;;;;;;;0.43;0.43;;;21.30;99.90;;;;;;5073842;28;20044;-79
2022/08/20 09:03:01;;;;;;;4.00;0.80;;;21.40;99.90;;;;;;5072734;28;20041;-79
2022/08/20 09:05:32;;;;;;;0.43;0.38;;;21.50;99.90;;;;;;5069848;28;20044;-80
2022/08/20 09:08:05;;;;;;;1.85;1.70;;;21.70;99.90;;;;;;5059092;28;20044;-80
2022/08/20 09:10:37;;;;;;;0.98;0.77;;;21.70;99.90;;;;;;5059058;28;20084;-81
2022/08/20 09:13:05;;;;;;;4.60;1.40;;;21.90;99.90;;;;;;5058056;28;20040;-81
2022/08/20 09:15:35;;;;;;;0.35;0.35;;;22.10;99.90;;;;;;5058973;28;20496;-79
2022/08/20 09:18:02;;;;;;;0.52;0.52;;;22.20;99.90;;;;;;5060077;28;20424;-79
2022/08/20 09:20:30;;;;;;;1.92;1.73;;;22.40;99.90;;;;;;5077554;28;20037;-84
2022/08/20 09:22:57;;;;;;;0.40;0.40;;;22.60;99.90;;;;;;5086836;28;20040;-80
2022/08/20 09:25:26;;;;;;;1.23;1.00;;;22.70;99.90;;;;;;5063481;28;20053;-83
2022/08/20 09:27:53;;;;;;;0.68;0.68;;;22.80;99.90;;;;;;5050237;28;20407;-80
2022/08/20 09:30:20;;;;;;;3.33;1.65;;;23.00;99.90;;;;;;5042232;28;20049;-79
2022/08/20 09:32:48;;;;;;;1.23;1.13;;;23.00;99.90;;;;;;5061575;28;20045;-81
2022/08/20 09:35:15;;;;;;;3.40;0.85;;;23.10;99.90;;;;;;5046472;28;20056;-79
2022/08/20 09:37:42;;;;;;;4.95;2.65;;;23.20;99.90;;;;;;5062479;28;20048;-80
2022/08/20 09:40:11;;;;;;;1.02;0.93;;;23.80;99.90;;;;;;5066709;28;20048;-80
2022/08/20 09:42:41;;;;;;;1.13;1.02;;;24.20;99.90;;;;;;5062392;28;20047;-80
2022/08/20 09:45:10;;;;;;;0.17;0.17;;;24.40;99.90;;;;;;5062030;28;20044;-80
2022/08/20 09:47:37;;;;;;;1.05;0.95;;;24.40;99.90;;;;;;5044584;28;20113;-80
2022/08/20 09:50:06;;;;;;;0.43;0.43;;;24.80;99.90;;;;;;5045551;28;20057;-79
2022/08/20 09:52:36;;;;;;;1.65;1.05;;;25.20;99.90;;;;;;5062487;28;20048;-81
2022/08/20 09:55:07;;;;;;;3.72;2.20;;;25.50;99.90;;;;;;5061979;28;20045;-81
2022/08/20 09:57:35;;;;;;;1.00;0.93;;;25.80;99.90;;;;;;5060072;28;20614;-77
2022/08/20 10:00:08;;;;;;;2.28;1.30;;;26.30;99.90;;;;;;5053922;28;20045;-77
2022/08/20 10:02:44;;;;;;;0.35;0.35;;;26.60;99.90;;;;;;5053772;28;20063;-76
2022/08/20 10:05:14;;;;;;;1.40;1.30;;;27.10;99.90;;;;;;5054171;28;20073;-77
2022/08/20 10:07:42;;;;;;;0.45;0.45;;;27.20;99.90;;;;;;5036070;28;20477;-77
2022/08/20 10:10:12;;;;;;;0.75;0.75;;;27.40;99.90;;;;;;5053183;28;20047;-76
2022/08/20 10:12:40;;;;;;;1.15;0.90;;;27.40;99.90;;;;;;5035416;28;20102;-78
2022/08/20 10:15:11;;;;;;;0.20;0.20;;;27.30;99.90;;;;;;5036131;28;20407;-78
2022/08/20 10:17:40;;;;;;;0.40;0.40;;;27.00;99.90;;;;;;5053726;28;20403;-76
2022/08/20 10:20:10;;;;;;;0.20;0.20;;;26.30;99.90;;;;;;5067068;28;20379;-77
2022/08/20 10:22:38;;;;;;;0.30;0.30;;;26.00;99.90;;;;;;5073151;28;20048;-76
2022/08/20 10:25:06;;;;;;;1.35;1.27;;;25.60;99.90;;;;;;5061950;28;20045;-76
2022/08/20 10:27:34;;;;;;;0.10;0.10;;;25.30;99.90;;;;;;5053105;28;20504;-75
2022/08/20 10:30:01;;;;;;;1.00;0.90;;;25.40;99.90;;;;;;5035005;28;20140;-76
2022/08/20 10:32:30;;;;;;;0.38;0.38;;;25.30;99.90;;;;;;5052800;28;20047;-76
2022/08/20 10:34:58;;;;;;;0.70;0.65;;;25.30;99.90;;;;;;5052931;28;20542;-77
2022/08/20 10:37:26;;;;;;;1.30;1.00;;;24.90;99.90;;;;;;5054373;28;20048;-76
2022/08/20 10:39:54;;;;;;;0.57;0.45;;;24.70;99.90;;;;;;5056619;28;20073;-76
2022/08/20 10:42:22;;;;;;;1.13;1.02;;;24.70;99.90;;;;;;5038512;28;20056;-77
2022/08/20 10:44:49;;;;;;;0.32;0.32;;;24.90;99.90;;;;;;5056647;28;20084;-76
2022/08/20 10:47:20;;;;;;;0.60;0.60;;;25.20;99.90;;;;;;5038858;28;20073;-76
2022/08/20 10:49:50;;;;;;;0.43;0.43;;;25.60;99.90;;;;;;5056829;28;20049;-76
2022/08/20 10:52:17;;;;;;;0.47;0.47;;;25.70;99.90;;;;;;5056867;28;20086;-76
2022/08/20 10:54:45;;;;;;;2.03;1.08;;;25.40;99.90;;;;;;5056638;28;20075;-76
2022/08/20 10:57:16;;;;;;;0.45;0.45;;;25.70;99.90;;;;;;5056466;28;20132;-77
2022/08/20 10:59:45;;;;;;;0.77;0.77;;;26.10;99.90;;;;;;5056788;28;20468;-77
2022/08/20 11:02:13;;;;;;;0.20;0.20;;;26.40;99.90;;;;;;5056375;28;20051;-77
2022/08/20 11:04:40;;;;;;;1.05;0.73;;;26.40;99.90;;;;;;5056314;28;20043;-77
2022/08/20 11:07:15;;;;;;;0.20;0.20;;;26.30;99.90;;;;;;5056477;28;20120;-76
2022/08/20 11:09:43;;;;;;;4.38;1.33;;;26.30;99.90;;;;;;5056629;28;20468;-76
2022/08/20 11:12:10;;;;;;;0.20;0.20;;;26.20;99.90;;;;;;5056236;28;20396;-77
2022/08/20 11:14:38;;;;;;;0.17;0.17;;;26.20;99.90;;;;;;5055958;28;20466;-76
2022/08/20 11:17:06;;;;;;;3.47;1.17;;;26.30;99.90;;;;;;5038596;28;20048;-76
2022/08/20 11:19:34;;;;;;;1.33;1.05;;;25.90;99.90;;;;;;5047228;28;20102;-76
2022/08/20 11:22:01;;;;;;;1.02;0.82;;;25.70;99.90;;;;;;5076220;28;20040;-75
2022/08/20 11:24:30;;;;;;;0.35;0.35;;;25.80;99.90;;;;;;5069596;28;20033;-76
2022/08/20 11:26:57;;;;;;;0.30;0.30;;;25.70;99.90;;;;;;5056006;28;20037;-76
2022/08/20 11:29:24;;;;;;;1.00;0.75;;;25.60;99.90;;;;;;5036302;28;20075;-76
2022/08/20 11:31:52;;;;;;;5.32;2.97;;;25.50;99.90;;;;;;5055017;28;20049;-77
2022/08/20 11:34:20;;;;;;;1.08;0.98;;;25.70;99.90;;;;;;5055737;28;20414;-76
2022/08/20 11:36:48;;;;;;;15.38;1.38;;;25.80;99.90;;;;;;5055851;28;20044;-76
2022/08/20 11:39:16;;;;;;;12.85;2.45;;;26.30;99.90;;;;;;5054605;28;20044;-77
2022/08/20 11:41:44;;;;;;;2.88;2.13;;;26.50;99.90;;;;;;5066030;28;20055;-76
2022/08/20 11:44:12;;;;;;;0.80;0.80;;;26.60;99.90;;;;;;5059601;28;20082;-75
2022/08/20 11:46:40;;;;;;;3.08;1.67;;;26.60;99.90;;;;;;5057547;28;20041;-75
2022/08/20 11:49:08;;;;;;;0.43;0.40;;;26.40;99.90;;;;;;5065411;28;20141;-76
2022/08/20 11:51:36;;;;;;;1.77;1.52;;;26.50;99.90;;;;;;5077425;28;20487;-77
2022/08/20 11:54:03;;;;;;;0.40;0.40;;;26.60;99.90;;;;;;5080317;28;20044;-76
2022/08/20 11:56:31;;;;;;;0.30;0.30;;;26.70;99.90;;;;;;5070320;28;20044;-76
2022/08/20 11:58:59;;;;;;;3.97;2.92;;;26.80;99.90;;;;;;5060114;28;20064;-77
2022/08/20 12:01:27;;;;;;;0.68;0.68;;;26.30;99.90;;;;;;5056398;28;20037;-76
2022/08/20 12:03:54;;;;;;;4.00;0.60;;;26.30;99.90;;;;;;5062319;28;20037;-76
2022/08/20 12:06:21;;;;;;;1.25;1.15;;;26.50;99.90;;;;;;5060801;28;20049;-75
2022/08/20 12:08:48;;;;;;;1.15;1.05;;;26.40;99.90;;;;;;5055666;28;20511;-77
2022/08/20 12:11:16;;;;;;;2.00;1.63;;;26.80;99.90;;;;;;5053437;28;20033;-77
2022/08/20 12:13:43;;;;;;;0.47;0.47;;;27.00;99.90;;;;;;5053050;28;20087;-77
2022/08/20 12:16:12;;;;;;;1.17;1.08;;;27.20;99.90;;;;;;5053189;28;20053;-76
2022/08/20 12:18:39;;;;;;;1.17;1.08;;;27.50;99.90;;;;;;5056280;28;20041;-76
2022/08/20 12:21:06;;;;;;;0.93;0.88;;;27.50;99.90;;;;;;5074496;28;20048;-76
2022/08/20 12:23:34;;;;;;;0.63;0.63;;;27.10;99.90;;;;;;5074646;28;20033;-76
2022/08/20 12:26:02;;;;;;;1.58;1.17;;;26.90;99.90;;;;;;5056658;28;20052;-76
2022/08/20 12:28:30;;;;;;;1.65;1.52;;;27.00;99.90;;;;;;5054470;28;20127;-77
2022/08/20 12:30:57;;;;;;;0.65;0.40;;;27.10;99.90;;;;;;5054506;28;20091;-76
2022/08/20 12:33:26;;;;;;;1.00;0.85;;;27.30;99.90;;;;;;5054391;28;20048;-76
2022/08/20 12:35:54;;;;;;;19.23;9.40;;;27.50;99.90;;;;;;5054343;28;20048;-77
2022/08/20 12:38:21;;;;;;;18.10;9.00;;;27.30;99.90;;;;;;5036183;28;20053;-77
2022/08/20 12:40:48;;;;;;;16.83;10.23;;;27.10;99.90;;;;;;5054456;28;20041;-77
2022/08/20 12:43:16;;;;;;;19.80;9.82;;;27.30;99.90;;;;;;5054368;28;20499;-76
2022/08/20 12:45:43;;;;;;;19.20;9.98;;;27.60;99.90;;;;;;5054169;28;20492;-76
2022/08/20 12:48:13;;;;;;;18.67;11.20;;;27.50;99.90;;;;;;5054860;28;20037;-77
2022/08/20 12:50:44;;;;;;;15.75;9.77;;;27.10;99.90;;;;;;5054368;28;20124;-77
2022/08/20 12:53:11;;;;;;;19.30;10.70;;;26.80;99.90;;;;;;5055797;28;20071;-77
2022/08/20 12:55:39;;;;;;;23.63;14.05;;;26.50;99.90;;;;;;5055244;28;20036;-76
2022/08/20 12:58:09;;;;;;;19.55;10.65;;;26.40;99.90;;;;;;5054728;28;20053;-75
2022/08/20 13:00:40;;;;;;;22.50;11.00;;;26.20;99.90;;;;;;5054701;28;20107;-77